createdAt,value
2018-12-13T00:04:38.325Z,6.53
2018-12-13T00:09:39.505Z,5.97
2018-12-13T00:14:40.669Z,6.73
2018-12-13T00:19:42.065Z,7.03
2018-12-13T00:24:43.286Z,6.43
2018-12-13T00:29:44.454Z,7.57
2018-12-13T00:34:45.636Z,9.83
2018-12-13T00:39:46.828Z,9.10
2018-12-13T00:44:48.028Z,10.67
2018-12-13T00:49:49.382Z,9.63
2018-12-13T00:54:50.557Z,10.03
2018-12-13T00:59:51.746Z,9.70
2018-12-13T01:04:52.948Z,9.50
2018-12-13T01:09:54.151Z,10.13
2018-12-13T01:14:55.318Z,9.83
2018-12-13T01:19:56.501Z,10.40
2018-12-13T01:24:57.687Z,9.57
2018-12-13T01:29:58.866Z,13.10
2018-12-13T01:35:00.057Z,9.40
2018-12-13T01:40:01.224Z,8.67
2018-12-13T01:45:02.628Z,8.37
2018-12-13T01:50:04.525Z,9.20
2018-12-13T01:55:05.711Z,8.87
2018-12-13T02:00:06.998Z,8.47
2018-12-13T02:05:08.537Z,9.13
2018-12-13T02:10:09.814Z,12.57
2018-12-13T02:15:11.101Z,15.73
2018-12-13T02:20:12.383Z,14.63
2018-12-13T02:25:13.574Z,11.37
2018-12-13T02:30:17.147Z,9.50
2018-12-13T02:35:18.419Z,8.33
2018-12-13T02:40:19.589Z,8.97
2018-12-13T02:45:20.767Z,8.67
2018-12-13T02:50:21.958Z,10.77
2018-12-13T02:55:23.143Z,9.67
2018-12-13T03:00:24.457Z,9.23
2018-12-13T03:05:25.618Z,9.07
2018-12-13T03:10:26.786Z,9.40
2018-12-13T03:15:28.319Z,9.07
2018-12-13T03:20:29.469Z,11.70
2018-12-13T03:25:30.644Z,9.53
2018-12-13T03:30:31.934Z,10.00
2018-12-13T03:35:33.196Z,10.13
2018-12-13T03:40:34.375Z,10.07
2018-12-13T03:45:35.559Z,13.97
2018-12-13T03:50:36.772Z,15.47
2018-12-13T03:55:37.945Z,15.57
2018-12-13T04:00:39.114Z,12.57
2018-12-13T04:05:40.289Z,9.67
2018-12-13T04:10:41.446Z,9.10
2018-12-13T04:15:42.619Z,9.57
2018-12-13T04:26:18.507Z,9.40
2018-12-13T04:31:19.783Z,9.40
2018-12-13T04:36:20.954Z,10.23
2018-12-13T04:41:22.131Z,10.23
2018-12-13T04:46:23.317Z,11.37
2018-12-13T04:51:24.488Z,10.57
2018-12-13T04:56:25.663Z,10.30
2018-12-13T05:01:26.827Z,10.73
2018-12-13T05:06:28.005Z,11.80
2018-12-13T05:11:29.178Z,15.07
2018-12-13T05:16:30.358Z,11.77
2018-12-13T05:21:31.522Z,12.87
2018-12-13T05:26:32.687Z,12.60
2018-12-13T05:31:33.850Z,11.37
2018-12-13T05:36:35.014Z,9.73
2018-12-13T05:41:36.182Z,10.30
2018-12-13T05:46:37.353Z,9.53
2018-12-13T05:51:38.511Z,9.97
2018-12-13T05:56:39.785Z,9.70
2018-12-13T06:01:40.980Z,9.13
2018-12-13T06:06:42.282Z,9.20
2018-12-13T06:11:43.447Z,9.40
2018-12-13T06:16:44.650Z,8.80
2018-12-13T06:21:45.806Z,8.17
2018-12-13T06:26:47.014Z,8.67
2018-12-13T06:31:48.198Z,7.73
2018-12-13T06:36:49.382Z,7.23
2018-12-13T06:41:50.559Z,6.93
2018-12-13T06:46:52.062Z,6.67
2018-12-13T06:51:53.289Z,7.77
2018-12-13T06:56:54.466Z,7.40
2018-12-13T07:01:55.647Z,7.63
2018-12-13T07:06:56.814Z,7.37
2018-12-13T07:11:57.979Z,6.83
2018-12-13T07:16:59.165Z,7.30
2018-12-13T07:22:00.347Z,6.40
2018-12-13T07:27:01.690Z,6.50
2018-12-13T07:32:03.121Z,7.20
2018-12-13T07:37:04.427Z,6.93
2018-12-13T07:42:05.613Z,6.27
2018-12-13T07:47:06.939Z,6.60
2018-12-13T07:52:08.132Z,7.60
2018-12-13T07:57:09.309Z,7.37
2018-12-13T08:02:10.507Z,6.73
2018-12-13T08:07:11.888Z,8.10
2018-12-13T08:12:13.079Z,7.67
2018-12-13T08:17:14.305Z,7.60
2018-12-13T08:22:15.476Z,6.93
2018-12-13T08:27:16.667Z,7.53
2018-12-13T08:32:17.863Z,8.30
2018-12-13T08:37:19.059Z,7.93
2018-12-13T08:42:20.254Z,7.80
2018-12-13T08:47:21.425Z,6.93
2018-12-13T08:52:22.667Z,7.47
2018-12-13T08:57:23.891Z,7.43
2018-12-13T09:02:25.099Z,7.97
2018-12-13T09:07:26.274Z,8.03
2018-12-13T09:12:27.602Z,7.53
2018-12-13T09:17:28.810Z,9.20
2018-12-13T09:22:30.006Z,7.90
2018-12-13T09:27:31.197Z,7.40
2018-12-13T09:32:32.551Z,7.40
2018-12-13T09:37:33.758Z,7.90
2018-12-13T09:42:34.927Z,9.20
2018-12-13T09:47:36.094Z,7.90
2018-12-13T09:52:37.266Z,9.07
2018-12-13T10:03:07.181Z,9.97
2018-12-13T10:08:08.352Z,10.40
2018-12-13T10:13:10.746Z,11.07
2018-12-13T10:18:12.262Z,11.60
2018-12-13T10:23:13.511Z,10.50
2018-12-13T10:28:14.753Z,11.40
2018-12-13T10:33:15.964Z,11.63
2018-12-13T10:38:17.234Z,11.57
2018-12-13T10:43:18.438Z,12.63
2018-12-13T10:48:19.636Z,12.10
2018-12-13T10:53:20.827Z,13.37
2018-12-13T10:58:22.075Z,12.90
2018-12-13T11:03:29.497Z,11.70
2018-12-13T11:08:30.805Z,14.37
2018-12-13T11:13:31.975Z,14.87
2018-12-13T11:18:34.798Z,14.87
2018-12-13T11:23:36.062Z,15.30
2018-12-13T11:28:49.699Z,15.83
2018-12-13T11:33:50.909Z,16.30
2018-12-13T11:38:52.274Z,16.73
2018-12-13T11:43:53.532Z,15.57
2018-12-13T11:48:54.716Z,14.03
2018-12-13T11:53:56.046Z,15.43
2018-12-13T11:58:57.283Z,14.33
2018-12-13T12:03:58.458Z,14.30
2018-12-13T12:08:59.628Z,15.17
2018-12-13T12:14:00.840Z,13.57
2018-12-13T12:19:02.233Z,13.50
2018-12-13T12:24:03.423Z,13.73
2018-12-13T12:29:04.748Z,15.37
2018-12-13T12:34:05.955Z,14.53
2018-12-13T12:39:07.136Z,13.63
2018-12-13T12:44:08.349Z,13.40
2018-12-13T12:49:09.530Z,13.27
2018-12-13T12:54:10.801Z,13.77
2018-12-13T12:59:12.031Z,13.37
2018-12-13T13:04:13.202Z,14.47
2018-12-13T13:09:14.362Z,14.00
2018-12-13T13:14:15.546Z,13.90
2018-12-13T13:19:16.782Z,15.20
2018-12-13T13:24:17.966Z,13.03
2018-12-13T13:29:19.161Z,12.20
2018-12-13T13:34:20.348Z,14.27
2018-12-13T13:39:21.527Z,12.00
2018-12-13T13:44:26.114Z,13.03
2018-12-13T13:49:27.302Z,13.83
2018-12-13T13:54:28.519Z,11.63
2018-12-13T13:59:29.702Z,11.90
2018-12-13T14:04:30.885Z,11.90
2018-12-13T14:09:37.785Z,11.50
2018-12-13T14:20:04.763Z,10.20
2018-12-13T14:25:06.116Z,10.50
2018-12-13T14:30:07.537Z,10.47
2018-12-13T14:35:08.741Z,10.20
2018-12-13T14:40:09.978Z,10.80
2018-12-13T14:45:11.310Z,9.50
2018-12-13T14:50:12.515Z,10.10
2018-12-13T14:55:13.708Z,10.50
2018-12-13T15:00:15.470Z,11.87
2018-12-13T15:05:16.706Z,10.20
2018-12-13T15:10:17.917Z,10.53
2018-12-13T15:15:19.143Z,10.93
2018-12-13T15:20:20.352Z,10.43
2018-12-13T15:25:21.539Z,11.17
2018-12-13T15:30:22.730Z,10.50
2018-12-13T15:35:23.915Z,10.43
2018-12-13T15:40:25.124Z,9.83
2018-12-13T15:45:26.734Z,10.07
2018-12-13T15:50:27.925Z,10.03
2018-12-13T15:55:29.136Z,10.10
2018-12-13T16:00:30.338Z,9.57
2018-12-13T16:05:31.550Z,10.43
2018-12-13T16:10:32.751Z,10.53
2018-12-13T16:15:33.950Z,11.30
2018-12-13T16:20:35.151Z,9.63
2018-12-13T16:25:36.442Z,10.03
2018-12-13T16:30:37.651Z,11.07
2018-12-13T16:35:38.840Z,10.93
2018-12-13T16:40:40.082Z,11.97
2018-12-13T16:45:41.289Z,13.70
2018-12-13T16:50:42.497Z,18.47
2018-12-13T16:55:44.432Z,9.77
2018-12-13T17:00:45.655Z,9.60
2018-12-13T17:05:46.913Z,10.57
2018-12-13T17:10:48.133Z,11.20
2018-12-13T17:15:49.583Z,10.27
2018-12-13T17:20:50.816Z,10.20
2018-12-13T17:25:52.022Z,9.37
2018-12-13T17:30:53.241Z,10.23
2018-12-13T17:35:54.511Z,9.17
2018-12-13T17:40:55.731Z,9.57
2018-12-13T17:45:56.984Z,11.23
2018-12-13T17:50:58.192Z,13.28
2018-12-13T17:55:59.389Z,9.83
2018-12-13T18:01:00.610Z,10.93
2018-12-13T18:06:01.813Z,10.90
2018-12-13T18:11:03.135Z,11.30
2018-12-13T18:16:04.349Z,9.20
2018-12-13T18:21:05.557Z,9.73
2018-12-13T18:26:06.852Z,8.93
2018-12-13T18:31:08.139Z,9.70
2018-12-13T18:36:09.322Z,10.07
2018-12-13T18:41:10.529Z,9.80
2018-12-13T18:46:11.752Z,8.63
2018-12-13T18:51:12.997Z,9.73
2018-12-13T18:56:14.227Z,9.47
2018-12-13T19:01:15.477Z,10.73
2018-12-13T19:06:16.725Z,9.53
2018-12-13T19:11:18.058Z,10.17
2018-12-13T19:16:19.285Z,11.17
2018-12-13T19:21:20.538Z,9.43
2018-12-13T19:26:21.754Z,9.87
2018-12-13T19:31:23.901Z,10.27
2018-12-13T19:36:25.099Z,10.63
2018-12-13T19:41:26.312Z,10.50
2018-12-13T19:46:27.576Z,11.67
2018-12-13T19:51:28.799Z,11.17
2018-12-13T19:56:30.014Z,13.15
2018-12-13T20:01:31.308Z,10.37
2018-12-13T20:06:32.541Z,10.87
2018-12-13T20:11:33.758Z,10.73
2018-12-13T20:16:34.971Z,10.83
2018-12-13T20:21:36.295Z,12.40
2018-12-13T20:26:37.530Z,10.37
2018-12-13T20:31:38.749Z,10.83
2018-12-13T20:36:39.969Z,11.67
2018-12-13T20:41:41.337Z,11.57
2018-12-13T20:46:42.585Z,10.90
2018-12-13T20:51:43.792Z,11.70
2018-12-13T20:56:45.108Z,12.27
2018-12-13T21:01:46.344Z,11.47
2018-12-13T21:06:49.601Z,11.50
2018-12-13T21:11:51.106Z,10.50
2018-12-13T21:16:52.405Z,11.17
2018-12-13T21:21:53.733Z,10.73
2018-12-13T21:26:54.937Z,12.03
2018-12-13T21:31:56.146Z,11.80
2018-12-13T21:36:57.351Z,13.27
2018-12-13T21:41:58.534Z,11.20
2018-12-13T21:46:59.756Z,12.30
2018-12-13T21:52:00.974Z,12.10
2018-12-13T21:57:02.281Z,12.63
2018-12-13T22:02:03.730Z,10.87
2018-12-13T22:07:05.064Z,12.40
2018-12-13T22:12:06.346Z,13.13
2018-12-13T22:17:07.627Z,14.53
2018-12-13T22:22:08.823Z,12.57
2018-12-13T22:27:10.005Z,13.07
2018-12-13T22:32:11.290Z,14.13
2018-12-13T22:37:12.820Z,14.67
2018-12-13T22:42:14.006Z,15.13
2018-12-13T22:47:15.174Z,14.70
2018-12-13T22:52:16.371Z,15.27
2018-12-13T22:57:17.542Z,16.30
2018-12-13T23:02:18.751Z,15.20
2018-12-13T23:07:19.976Z,15.73
2018-12-13T23:12:21.159Z,15.27
2018-12-13T23:17:22.679Z,15.00
2018-12-13T23:22:23.945Z,16.03
2018-12-13T23:27:25.132Z,15.77
2018-12-13T23:32:26.330Z,13.20
2018-12-13T23:37:27.505Z,14.30
2018-12-13T23:42:28.698Z,13.83
2018-12-13T23:47:29.876Z,14.63
2018-12-13T23:52:31.052Z,12.53
2018-12-13T23:57:32.247Z,13.87
